Time;durP1;ratioP1;P1;durP2;ratioP2;P2;SDS_P1;SDS_P2;PMS_P1;PMS_P2;Temp;Humidity;BMP_temperature;BMP_pressure;BME280_temperature;BME280_humidity;BME280_pressure;Samples;Min_cycle;Max_cycle;Signal;HPM_P1;HPM_P2
2022/01/17 00:00:11;;;;;;;33.17;16.23;;;;;;;1.40;75.88;95087.53;5073874;28;20284;-60
2022/01/17 00:02:37;;;;;;;31.77;17.07;;;;;;;1.35;76.61;95080.22;5092135;28;20642;-64
2022/01/17 00:05:07;;;;;;;30.83;15.97;;;;;;;1.31;76.86;95077.91;5092100;28;20203;-60
2022/01/17 00:07:33;;;;;;;28.10;15.47;;;;;;;1.40;77.09;95065.81;5091849;28;20192;-59
2022/01/17 00:09:59;;;;;;;28.50;15.97;;;;;;;1.27;76.22;95072.19;5073785;28;20207;-64
2022/01/17 00:12:26;;;;;;;29.17;15.07;;;;;;;1.42;76.39;95070.75;5091771;28;20565;-64
2022/01/17 00:14:54;;;;;;;27.77;15.47;;;;;;;1.31;76.04;95076.22;5091811;28;20349;-62
2022/01/17 00:19:45;;;;;;;28.10;13.27;;;;;;;1.32;74.32;95112.88;5092164;28;20212;-62
2022/01/17 00:22:13;;;;;;;24.13;13.87;;;;;;;1.44;74.39;95104.88;5091429;28;20249;-61
2022/01/17 00:24:40;;;;;;;22.70;12.27;;;;;;;1.23;74.88;95094.94;5106856;22;20299;-62
2022/01/17 00:27:06;;;;;;;22.57;12.77;;;;;;;1.23;76.82;95057.41;5091680;28;20658;-60
2022/01/17 00:29:32;;;;;;;20.53;11.80;;;;;;;1.48;74.46;95103.03;5092055;28;20238;-63
2022/01/17 00:31:58;;;;;;;24.77;12.53;;;;;;;1.26;74.37;95104.81;5073501;28;20191;-60
2022/01/17 00:34:24;;;;;;;24.60;13.60;;;;;;;1.13;75.53;95086.97;5091631;28;20184;-61
2022/01/17 00:36:49;;;;;;;23.50;13.67;;;;;;;1.10;75.52;95087.13;5091403;28;20212;-61
2022/01/17 00:39:16;;;;;;;23.00;13.30;;;;;;;1.04;77.09;95056.53;5091326;28;20724;-65
2022/01/17 00:41:42;;;;;;;26.70;13.83;;;;;;;1.14;77.70;95056.09;5073274;28;20235;-60
2022/01/17 00:44:08;;;;;;;27.20;14.70;;;;;;;0.94;78.98;95036.06;5091755;28;20180;-60
2022/01/17 00:46:34;;;;;;;32.20;15.03;;;;;;;1.07;78.37;95057.19;5073574;28;20218;-59
2022/01/17 00:49:00;;;;;;;27.60;15.40;;;;;;;1.14;78.00;95051.06;5073307;28;20195;-61
2022/01/17 00:51:25;;;;;;;31.87;15.20;;;;;;;1.25;76.51;95073.94;5091314;28;20215;-61
2022/01/17 00:53:51;;;;;;;25.03;14.03;;;;;;;1.27;77.11;95061.38;5091256;28;20267;-60
2022/01/17 00:56:20;;;;;;;25.03;14.13;;;;;;;1.20;77.59;95053.31;5091546;28;20291;-61
2022/01/17 00:58:46;;;;;;;29.03;14.83;;;;;;;1.37;76.19;95083.47;5091276;28;20259;-66
2022/01/17 01:01:12;;;;;;;27.60;14.17;;;;;;;1.19;77.43;95049.19;5091252;28;20243;-61
2022/01/17 01:03:37;;;;;;;30.33;15.53;;;;;;;1.29;75.93;95087.19;5091624;28;20190;-59
2022/01/17 01:06:03;;;;;;;33.70;18.17;;;;;;;1.09;77.10;95057.16;5091707;28;20209;-64
2022/01/17 01:08:29;;;;;;;36.10;18.67;;;;;;;0.96;79.23;95016.00;5073368;28;20237;-63
2022/01/17 01:10:54;;;;;;;32.97;17.00;;;;;;;1.06;78.91;95022.22;5091758;28;20283;-64
2022/01/17 01:13:23;;;;;;;33.77;17.53;;;;;;;0.95;79.34;95017.66;5073006;28;20668;-64
2022/01/17 01:18:39;;;;;;;35.50;16.87;;;;;;;1.28;77.34;95040.47;5091650;28;20585;-64
2022/01/17 01:29:48;;;;;;;29.20;15.40;;;;;;;1.21;76.72;95039.13;5049013;28;20202;-58
2022/01/17 01:32:19;;;;;;;29.93;15.13;;;;;;;1.18;76.44;95054.25;5031976;28;20196;-63
2022/01/17 01:34:49;;;;;;;24.80;14.00;;;;;;;0.98;77.09;95022.56;5073217;28;20657;-61
2022/01/17 01:37:15;;;;;;;24.50;13.60;;;;;;;1.04;76.53;95031.50;5095306;28;20196;-65
2022/01/17 01:39:40;;;;;;;25.47;14.13;;;;;;;0.99;77.18;95034.19;5094545;28;20196;-59
2022/01/17 01:42:14;;;;;;;27.87;13.77;;;;;;;1.00;78.13;95023.31;5094520;28;20233;-62
2022/01/17 01:44:40;;;;;;;26.77;14.03;;;;;;;0.97;78.77;95012.63;5095040;28;20207;-65
2022/01/17 01:47:06;;;;;;;26.27;13.77;;;;;;;1.06;77.99;95014.72;5094761;28;20181;-62
2022/01/17 01:49:32;;;;;;;26.00;13.33;;;;;;;1.04;78.00;95024.81;5094763;28;20180;-64
2022/01/17 01:51:57;;;;;;;25.10;13.67;;;;;;;1.15;77.50;95016.84;5094500;28;20266;-61
2022/01/17 01:54:23;;;;;;;23.70;12.83;;;;;;;1.10;78.39;95014.53;5094438;28;21080;-61
2022/01/17 01:56:50;;;;;;;23.73;12.93;;;;;;;1.17;77.61;95023.41;5076016;28;20204;-61
2022/01/17 01:59:20;;;;;;;28.97;14.73;;;;;;;1.17;77.30;95020.09;5094321;28;20189;-61
2022/01/17 02:01:46;;;;;;;24.33;12.57;;;;;;;1.32;77.13;95026.94;5076129;28;20192;-61
2022/01/17 02:04:13;;;;;;;26.03;14.27;;;;;;;1.18;77.96;95007.50;5094398;28;20623;-63
2022/01/17 02:06:39;;;;;;;25.67;14.23;;;;;;;1.12;76.53;95022.78;5094157;28;20243;-63
2022/01/17 02:09:05;;;;;;;26.20;12.67;;;;;;;1.01;77.76;95007.41;5094136;28;20658;-62
2022/01/17 02:11:32;;;;;;;26.00;13.50;;;;;;;1.27;76.22;95037.16;5093956;28;20593;-59
2022/01/17 02:13:57;;;;;;;24.57;13.13;;;;;;;1.15;76.60;95021.84;5094044;28;20183;-61
2022/01/17 02:16:23;;;;;;;23.97;12.67;;;;;;;0.91;77.91;94990.34;5093736;28;20208;-63
2022/01/17 02:18:50;;;;;;;24.70;13.23;;;;;;;0.97;76.50;95018.41;5093894;28;20180;-63
2022/01/17 02:23:43;;;;;;;22.13;11.53;;;;;;;0.96;76.78;94996.78;5093828;28;20184;-64
2022/01/17 02:26:10;;;;;;;25.40;13.17;;;;;;;0.78;77.72;94993.38;5094102;28;20211;-60
2022/01/17 02:28:36;;;;;;;23.27;13.00;;;;;;;0.84;77.86;94997.31;5093791;28;20191;-59
2022/01/17 02:31:05;;;;;;;23.13;11.90;;;;;;;0.91;77.79;94987.84;5094018;28;20561;-60
2022/01/17 02:33:34;;;;;;;21.20;11.83;;;;;;;1.04;77.69;94997.28;5093442;28;20241;-63
2022/01/17 02:36:01;;;;;;;27.37;13.47;;;;;;;0.95;77.07;95002.66;5094006;28;20263;-64
2022/01/17 02:38:27;;;;;;;23.97;13.07;;;;;;;0.97;77.75;94997.59;5074972;28;20207;-64
2022/01/17 02:40:53;;;;;;;21.80;12.73;;;;;;;1.03;77.29;94993.13;5093836;28;20265;-59
2022/01/17 02:43:21;;;;;;;27.30;13.63;;;;;;;1.09;77.15;94999.59;5093361;28;20188;-60
2022/01/17 02:48:22;;;;;;;25.97;13.30;;;;;;;1.08;76.16;95018.78;5093596;28;20203;-60
2022/01/17 02:50:47;;;;;;;23.17;13.27;;;;;;;0.96;76.72;95006.78;5093719;28;20283;-59
2022/01/17 02:53:14;;;;;;;20.77;10.30;;;;;;;0.77;77.00;94994.25;5093253;28;20219;-61
2022/01/17 02:55:46;;;;;;;22.73;11.57;;;;;;;0.84;76.53;95013.13;5093435;28;20661;-60
2022/01/17 02:58:12;;;;;;;20.80;10.93;;;;;;;0.66;78.23;94981.38;5092984;28;20236;-62
2022/01/17 03:00:38;;;;;;;20.67;11.57;;;;;;;0.84;77.63;94990.63;5074708;28;20208;-61
2022/01/17 03:03:04;;;;;;;21.50;11.77;;;;;;;0.89;78.87;94964.59;5074772;28;20187;-60
2022/01/17 03:05:30;;;;;;;25.40;11.33;;;;;;;0.96;78.36;94978.44;5093524;28;20275;-62
2022/01/17 03:07:55;;;;;;;23.97;12.33;;;;;;;1.12;76.94;94999.44;5092866;28;20192;-64
2022/01/17 03:12:52;;;;;;;20.37;10.90;;;;;;;1.02;75.74;95015.72;5093151;28;20180;-61
2022/01/17 03:15:20;;;;;;;24.30;11.13;;;;;;;0.97;77.18;94992.59;5074540;28;20204;-60
2022/01/17 03:17:46;;;;;;;18.70;10.13;;;;;;;1.00;75.69;95017.47;5092578;28;20229;-60
2022/01/17 03:20:12;;;;;;;19.77;10.07;;;;;;;0.98;76.51;95001.72;5093296;28;20215;-60
2022/01/17 03:22:39;;;;;;;20.53;10.80;;;;;;;1.05;74.28;95023.91;5093279;28;20180;-60
2022/01/17 03:25:05;;;;;;;20.83;9.87;;;;;;;0.83;77.21;94983.16;5074853;28;20202;-62
2022/01/17 03:27:31;;;;;;;19.70;10.67;;;;;;;0.86;78.21;94970.53;5093376;28;20267;-65
2022/01/17 03:29:56;;;;;;;19.93;10.57;;;;;;;0.86;77.27;94983.03;5075393;28;20220;-62
2022/01/17 03:32:22;;;;;;;17.63;11.03;;;;;;;1.09;77.55;94987.06;5093296;28;20183;-62
2022/01/17 03:34:47;;;;;;;20.67;10.47;;;;;;;1.12;76.89;94996.94;5075080;28;20538;-61
2022/01/17 03:37:13;;;;;;;20.27;10.27;;;;;;;0.82;75.99;95014.06;5093424;28;20585;-62
2022/01/17 03:39:38;;;;;;;18.60;10.60;;;;;;;0.59;77.11;94997.50;5092299;28;20200;-63
2022/01/17 03:42:04;;;;;;;22.73;10.13;;;;;;;0.69;76.25;95015.44;5092571;28;20187;-63
2022/01/17 03:44:29;;;;;;;21.50;10.87;;;;;;;0.52;76.41;95016.13;5092147;28;20179;-64
2022/01/17 03:46:55;;;;;;;22.53;10.30;;;;;;;0.43;76.53;95015.66;5074240;28;20180;-60
2022/01/17 03:49:20;;;;;;;20.07;9.57;;;;;;;0.59;75.83;95024.19;5073914;28;20562;-62
2022/01/17 03:51:46;;;;;;;19.00;9.07;;;;;;;0.48;75.85;95028.81;5092100;28;20184;-65
2022/01/17 03:54:11;;;;;;;17.80;9.67;;;;;;;0.67;75.76;95030.50;5092057;28;20180;-65
2022/01/17 03:56:37;;;;;;;18.23;9.13;;;;;;;0.60;75.86;95039.16;5091723;28;20203;-64
2022/01/17 03:59:02;;;;;;;16.23;9.67;;;;;;;0.18;76.34;95020.84;5092085;28;20186;-61
2022/01/17 04:01:27;;;;;;;15.53;8.53;;;;;;;0.30;76.39;95012.88;5092118;28;20204;-64
2022/01/17 04:03:53;;;;;;;18.23;9.40;;;;;;;0.46;77.39;95001.38;5073696;28;20176;-64
2022/01/17 04:06:18;;;;;;;18.97;9.30;;;;;;;0.31;78.24;94981.16;5091880;28;20214;-60
2022/01/17 04:08:44;;;;;;;20.50;10.00;;;;;;;0.31;79.95;94961.16;5091992;28;20183;-64
2022/01/17 04:11:10;;;;;;;21.20;10.13;;;;;;;0.27;80.61;94959.66;5091696;28;20207;-63
2022/01/17 04:13:36;;;;;;;17.43;10.50;;;;;;;0.41;80.98;94963.25;5099546;22;20352;-65
2022/01/17 04:16:02;;;;;;;20.73;11.00;;;;;;;0.50;79.90;94984.56;5092041;28;20689;-63
2022/01/17 04:18:27;;;;;;;22.60;12.23;;;;;;;0.52;79.57;94991.13;5073563;28;20266;-64
2022/01/17 04:20:53;;;;;;;25.63;13.37;;;;;;;0.67;79.14;94992.16;5091992;28;20686;-66
2022/01/17 04:23:19;;;;;;;26.87;14.00;;;;;;;0.61;79.10;94997.41;5092306;28;20552;-60
2022/01/17 04:25:45;;;;;;;25.60;13.43;;;;;;;0.60;79.44;94988.31;5092209;28;20204;-65
2022/01/17 04:28:14;;;;;;;24.37;13.87;;;;;;;0.56;79.05;94999.31;5092328;28;20195;-61
2022/01/17 04:30:41;;;;;;;24.83;13.97;;;;;;;0.66;79.25;94993.88;5101644;22;20228;-59
2022/01/17 04:33:07;;;;;;;23.30;12.80;;;;;;;0.58;79.69;94985.88;5092353;28;20182;-65
2022/01/17 04:35:35;;;;;;;25.83;13.53;;;;;;;0.76;78.04;95022.66;5091630;28;20208;-61
2022/01/17 04:38:06;;;;;;;24.53;13.67;;;;;;;0.65;77.86;95012.25;5091675;28;20677;-64
2022/01/17 04:40:37;;;;;;;25.13;13.80;;;;;;;0.79;78.19;95007.50;5091849;28;20258;-63
2022/01/17 04:43:13;;;;;;;23.83;11.77;;;;;;;0.72;77.93;95000.31;5091563;28;20570;-60
2022/01/17 04:45:38;;;;;;;28.47;13.20;;;;;;;0.67;77.24;95019.69;5091889;28;20203;-65
2022/01/17 04:48:04;;;;;;;27.70;12.93;;;;;;;0.65;77.64;95006.44;5091468;28;20190;-63
2022/01/17 04:50:29;;;;;;;22.53;12.00;;;;;;;0.43;78.60;94983.16;5091691;28;20204;-62
2022/01/17 04:52:58;;;;;;;21.97;12.40;;;;;;;0.38;78.16;94995.06;5091330;28;20210;-61
2022/01/17 04:55:25;;;;;;;23.17;11.17;;;;;;;0.36;77.70;95004.31;5091743;28;20572;-60
2022/01/17 04:57:50;;;;;;;27.13;13.03;;;;;;;0.51;78.39;94982.00;5091282;28;20196;-64
2022/01/17 05:00:18;;;;;;;23.20;11.97;;;;;;;0.44;77.97;94987.31;5091495;28;20200;-60
2022/01/17 05:02:45;;;;;;;21.53;11.33;;;;;;;0.55;78.16;94985.16;5091341;28;20168;-64
2022/01/17 05:05:12;;;;;;;22.50;13.30;;;;;;;0.56;78.32;94985.13;5091623;28;20291;-61
2022/01/17 05:07:39;;;;;;;20.27;12.10;;;;;;;0.56;78.81;94971.81;5091103;28;20178;-61
2022/01/17 05:10:08;;;;;;;25.30;12.00;;;;;;;0.61;79.09;94970.72;5093615;28;20761;-59
2022/01/17 05:12:34;;;;;;;21.50;12.47;;;;;;;0.81;78.80;94974.91;5095211;28;20638;-64
2022/01/17 05:15:00;;;;;;;26.37;12.03;;;;;;;0.70;78.48;94982.06;5095268;28;20200;-64
2022/01/17 05:19:58;;;;;;;20.03;10.63;;;;;;;0.54;78.56;94978.56;5095319;28;20691;-59
2022/01/17 05:22:27;;;;;;;20.27;9.33;;;;;;;0.59;76.80;95012.50;5094756;28;20669;-59
2022/01/17 05:24:52;;;;;;;22.13;10.63;;;;;;;0.33;78.05;94989.41;5094968;28;20696;-62
2022/01/17 05:27:18;;;;;;;19.43;9.23;;;;;;;0.25;78.92;94983.91;5094621;28;20181;-62
2022/01/17 05:29:46;;;;;;;18.83;8.63;;;;;;;0.18;78.76;94983.34;5094662;28;20199;-63
2022/01/17 05:32:12;;;;;;;19.87;9.63;;;;;;;0.42;78.32;94997.38;5094584;28;20652;-63
2022/01/17 05:34:40;;;;;;;15.27;8.40;;;;;;;0.42;77.93;94999.06;5094920;28;20673;-64
2022/01/17 05:37:07;;;;;;;17.90;9.03;;;;;;;0.54;76.51;95018.56;5094268;28;20214;-61
2022/01/17 05:39:33;;;;;;;15.60;8.70;;;;;;;0.41;77.11;95004.91;5094699;28;20538;-60
2022/01/17 05:41:59;;;;;;;20.20;9.13;;;;;;;0.25;77.26;94989.72;5075962;28;20231;-65
2022/01/17 05:44:24;;;;;;;15.53;8.87;;;;;;;0.26;76.90;95015.53;5094279;28;20187;-66
2022/01/17 05:46:50;;;;;;;20.90;10.17;;;;;;;0.29;77.51;94988.72;5094314;28;20187;-64
2022/01/17 05:49:15;;;;;;;16.10;8.93;;;;;;;-0.02;78.49;94984.13;5094505;28;20217;-60
2022/01/17 05:51:41;;;;;;;21.83;10.20;;;;;;;0.01;77.80;94995.69;5094467;28;20525;-62
2022/01/17 05:54:07;;;;;;;19.90;9.30;;;;;;;0.54;90.14;95034.41;5101792;22;20220;-61
2022/01/17 05:56:33;;;;;;;18.20;8.80;;;;;;;0.31;79.27;95081.97;5094455;28;20553;-60
2022/01/17 05:58:59;;;;;;;19.57;9.97;;;;;;;0.08;82.71;95024.56;5076298;28;20283;-60
2022/01/17 06:01:25;;;;;;;16.97;9.20;;;;;;;0.09;81.65;95051.16;5094357;28;20560;-65
2022/01/17 06:03:50;;;;;;;19.77;10.43;;;;;;;0.27;79.42;95080.47;5095313;28;20193;-61
2022/01/17 06:06:16;;;;;;;18.87;9.83;;;;;;;0.18;80.59;95057.50;5094237;28;20272;-61
2022/01/17 06:08:42;;;;;;;18.87;9.80;;;;;;;0.15;79.97;95050.13;5094555;28;20187;-60
2022/01/17 06:11:08;;;;;;;25.33;11.57;;;;;;;0.26;79.37;95068.84;5094114;28;20188;-61
2022/01/17 06:13:34;;;;;;;20.40;11.00;;;;;;;0.29;78.61;95071.22;5076103;28;20211;-61
2022/01/17 06:15:59;;;;;;;21.03;10.60;;;;;;;0.31;79.34;95048.66;5093872;28;20294;-60
2022/01/17 06:18:25;;;;;;;21.20;10.13;;;;;;;0.42;77.91;95081.56;5094160;28;20313;-62
2022/01/17 06:20:50;;;;;;;21.30;11.37;;;;;;;0.44;76.97;95090.63;5093664;28;20203;-65
2022/01/17 06:23:16;;;;;;;15.87;9.50;;;;;;;0.45;76.85;95084.75;5094392;28;20266;-61
2022/01/17 06:25:41;;;;;;;20.50;10.33;;;;;;;0.45;77.01;95086.44;5094305;28;20212;-59
2022/01/17 06:28:07;;;;;;;21.40;10.50;;;;;;;0.60;77.22;95073.34;5094261;28;20199;-61
2022/01/17 06:30:32;;;;;;;22.50;10.50;;;;;;;0.69;77.19;95082.97;5093687;28;20264;-63
2022/01/17 06:32:58;;;;;;;17.77;9.13;;;;;;;0.83;75.89;95093.22;5094022;28;20266;-64
2022/01/17 06:35:24;;;;;;;18.40;9.83;;;;;;;0.81;75.88;95094.97;5075373;28;20219;-60
2022/01/17 06:37:51;;;;;;;27.30;11.43;;;;;;;0.99;75.26;95103.47;5075610;28;20712;-62
2022/01/17 06:40:18;;;;;;;24.50;11.87;;;;;;;0.98;75.02;95094.31;5075525;28;20283;-64
2022/01/17 06:42:45;;;;;;;21.27;12.03;;;;;;;0.95;74.63;95107.75;5093639;28;20330;-62
2022/01/17 06:45:12;;;;;;;20.43;11.77;;;;;;;0.87;74.99;95091.44;5093898;28;20706;-65
2022/01/17 06:47:38;;;;;;;26.70;12.40;;;;;;;0.95;75.51;95095.25;5093938;28;20267;-64
2022/01/17 06:50:05;;;;;;;20.93;11.43;;;;;;;0.89;76.50;95082.19;5075456;28;20286;-64
2022/01/17 06:52:31;;;;;;;23.17;12.00;;;;;;;0.68;76.70;95072.16;5093462;28;20341;-64
2022/01/17 06:54:57;;;;;;;22.50;11.10;;;;;;;0.93;77.34;95061.16;5093259;28;20268;-64
2022/01/17 06:57:23;;;;;;;22.20;10.93;;;;;;;1.22;75.00;95104.13;5093478;28;20314;-59
2022/01/17 06:59:49;;;;;;;24.80;12.37;;;;;;;1.15;75.56;95086.94;5093017;28;20727;-64
2022/01/17 07:02:14;;;;;;;22.43;11.57;;;;;;;1.30;74.59;95104.63;5093397;28;20186;-64
2022/01/17 07:04:40;;;;;;;31.37;14.40;;;;;;;1.48;74.07;95111.38;5093148;28;20579;-61
2022/01/17 07:07:06;;;;;;;22.47;12.23;;;;;;;1.39;73.69;95118.47;5093285;28;20653;-64
2022/01/17 07:09:32;;;;;;;26.00;12.67;;;;;;;1.55;74.32;95094.41;5074832;28;20183;-64
2022/01/17 07:11:59;;;;;;;24.77;13.43;;;;;;;1.59;73.67;95104.22;5093321;28;20263;-63
2022/01/17 07:14:26;;;;;;;25.60;12.13;;;;;;;1.76;72.42;95147.78;5092977;28;20164;-67
2022/01/17 07:16:53;;;;;;;25.23;13.07;;;;;;;1.55;73.91;95109.44;5074571;28;20588;-60
2022/01/17 07:19:19;;;;;;;22.07;12.87;;;;;;;1.55;73.08;95121.94;5092991;28;20683;-65
2022/01/17 07:21:44;;;;;;;27.40;13.07;;;;;;;1.92;71.31;95158.78;5092914;28;20172;-66
2022/01/17 07:24:10;;;;;;;30.07;14.30;;;;;;;1.90;73.56;95132.97;5092989;28;20226;-61
2022/01/17 07:26:35;;;;;;;29.40;15.47;;;;;;;2.06;72.53;95171.53;5074429;28;20621;-63
2022/01/17 07:29:05;;;;;;;29.03;14.43;;;;;;;2.15;72.68;95158.56;5092621;28;20259;-65
2022/01/17 07:31:31;;;;;;;26.43;15.13;;;;;;;2.18;70.81;95183.53;5073782;28;20204;-60
2022/01/17 07:33:57;;;;;;;30.80;16.33;;;;;;;2.17;70.82;95179.38;5092970;28;20329;-60
2022/01/17 07:36:23;;;;;;;32.80;17.03;;;;;;;2.03;70.87;95156.59;5092364;28;20200;-59
2022/01/17 07:38:51;;;;;;;27.90;14.73;;;;;;;2.21;73.01;95098.94;5093155;28;20306;-63
2022/01/17 07:41:17;;;;;;;34.53;16.20;;;;;;;2.24;72.67;95098.00;5074064;28;20201;-61
2022/01/17 07:43:43;;;;;;;29.27;15.53;;;;;;;2.27;69.35;95168.06;5074331;28;20245;-63
2022/01/17 07:46:19;;;;;;;28.03;14.53;;;;;;;2.62;69.59;95153.94;5092218;28;20192;-60
2022/01/17 07:49:08;;;;;;;26.73;13.70;;;;;;;2.81;70.59;95153.00;5093152;28;20183;-61
2022/01/17 07:51:34;;;;;;;26.27;14.07;;;;;;;2.78;66.80;95220.94;5092047;28;20614;-61
2022/01/17 07:53:59;;;;;;;27.10;15.03;;;;;;;2.90;68.71;95186.91;5092418;28;20217;-63
2022/01/17 07:56:25;;;;;;;29.07;14.87;;;;;;;3.17;67.87;95223.31;5092083;28;20587;-61
2022/01/17 07:58:51;;;;;;;28.50;14.13;;;;;;;3.29;67.10;95258.69;5092569;28;20208;-61
2022/01/17 08:01:16;;;;;;;26.00;14.03;;;;;;;3.49;68.20;95264.50;5073683;28;20291;-61
2022/01/17 08:03:42;;;;;;;27.30;13.57;;;;;;;3.74;67.01;95269.94;5092436;28;20195;-61
2022/01/17 08:06:08;;;;;;;27.10;13.47;;;;;;;3.98;67.13;95268.78;5073757;28;20230;-66
2022/01/17 08:08:34;;;;;;;25.57;12.13;;;;;;;4.02;66.07;95265.22;5092221;28;20274;-61
2022/01/17 08:10:59;;;;;;;26.43;13.10;;;;;;;4.40;66.17;95241.47;5091832;28;20275;-62
2022/01/17 08:13:25;;;;;;;23.50;12.80;;;;;;;4.65;65.00;95234.25;5092291;28;20185;-62
2022/01/17 08:15:50;;;;;;;21.57;12.43;;;;;;;4.92;63.52;95244.59;5073691;28;20213;-62
2022/01/17 08:18:16;;;;;;;22.07;13.37;;;;;;;4.80;62.66;95235.97;5092185;28;20217;-65
2022/01/17 08:20:43;;;;;;;23.53;10.93;;;;;;;4.66;62.60;95238.41;5091956;28;20204;-61
2022/01/17 08:23:09;;;;;;;19.43;9.83;;;;;;;5.02;61.45;95231.41;5092176;28;20186;-62
2022/01/17 08:25:36;;;;;;;14.60;7.47;;;;;;;4.97;60.27;95277.88;5091582;28;20295;-61
2022/01/17 08:28:02;;;;;;;9.90;6.13;;;;;;;4.94;59.88;95320.88;5091880;28;20216;-61
2022/01/17 08:30:29;;;;;;;11.80;5.73;;;;;;;5.13;60.16;95334.94;5091865;28;20237;-61
2022/01/17 08:32:55;;;;;;;10.60;5.20;;;;;;;5.38;59.38;95364.72;5073909;28;20197;-63
2022/01/17 08:35:22;;;;;;;8.00;4.50;;;;;;;5.40;59.45;95382.28;5091828;28;20204;-61
2022/01/17 08:37:47;;;;;;;7.60;5.13;;;;;;;5.87;59.07;95398.22;5091388;28;20214;-61
2022/01/17 08:40:14;;;;;;;9.77;5.53;;;;;;;6.40;57.59;95385.94;5091498;28;20210;-63
2022/01/17 08:42:39;;;;;;;19.70;7.87;;;;;;;6.92;56.26;95386.31;5091850;28;20187;-61
2022/01/17 08:45:11;;;;;;;16.33;6.27;;;;;;;7.22;55.95;95397.13;5095606;28;20259;-63
2022/01/17 08:47:37;;;;;;;14.13;6.80;;;;;;;7.36;55.72;95345.72;5077518;28;20191;-62
2022/01/17 08:50:07;;;;;;;10.80;5.83;;;;;;;7.47;55.56;95328.16;5095647;28;20588;-61
2022/01/17 08:52:33;;;;;;;11.93;6.47;;;;;;;7.60;54.24;95334.91;5095718;28;20188;-63
2022/01/17 08:54:59;;;;;;;13.00;5.97;;;;;;;7.55;54.45;95272.84;5077298;28;20196;-61
2022/01/17 08:57:25;;;;;;;15.87;6.87;;;;;;;7.62;55.14;95239.47;5095328;28;20207;-62
2022/01/17 08:59:52;;;;;;;9.30;5.53;;;;;;;7.40;55.26;95249.34;5095551;28;20272;-62
2022/01/17 09:02:18;;;;;;;12.87;7.23;;;;;;;7.82;55.37;95257.66;5095571;28;20234;-62
2022/01/17 09:04:44;;;;;;;13.37;7.00;;;;;;;8.22;53.79;95259.22;5095517;28;20200;-61
2022/01/17 09:07:11;;;;;;;11.43;6.40;;;;;;;8.29;53.73;95222.44;5095875;28;20176;-61
2022/01/17 09:09:47;;;;;;;19.90;7.27;;;;;;;8.63;53.22;95241.25;5095165;28;20204;-61
2022/01/17 09:12:13;;;;;;;10.50;6.17;;;;;;;8.90;52.87;95239.38;5095343;28;20215;-60
2022/01/17 09:14:39;;;;;;;9.07;5.63;;;;;;;9.22;50.69;95276.00;5095215;28;20200;-62
2022/01/17 09:17:12;;;;;;;14.77;6.93;;;;;;;9.34;51.60;95249.78;5095046;28;20219;-61
2022/01/17 09:19:42;;;;;;;15.07;6.30;;;;;;;9.27;48.51;95314.56;5076821;28;20559;-61
2022/01/17 09:22:08;;;;;;;11.27;5.93;;;;;;;9.35;49.57;95263.28;5095404;28;20219;-62
2022/01/17 09:24:35;;;;;;;16.30;6.53;;;;;;;9.53;48.65;95279.75;5095081;28;20203;-61
2022/01/17 09:27:02;;;;;;;11.13;5.73;;;;;;;9.27;47.51;95304.44;5094699;28;20187;-63
2022/01/17 09:29:28;;;;;;;12.23;5.80;;;;;;;9.50;46.84;95300.25;5076524;28;20655;-61
2022/01/17 09:31:53;;;;;;;12.83;6.13;;;;;;;9.16;47.42;95306.88;5095120;28;20582;-65
2022/01/17 09:34:19;;;;;;;12.47;6.20;;;;;;;8.92;47.54;95280.66;5094964;28;20649;-65
2022/01/17 09:36:44;;;;;;;8.93;5.83;;;;;;;9.27;47.42;95314.56;5094973;28;20705;-65
2022/01/17 09:39:10;;;;;;;12.53;5.40;;;;;;;9.25;47.22;95301.19;5076875;28;20676;-64
2022/01/17 09:41:36;;;;;;;12.57;6.60;;;;;;;8.81;49.09;95250.97;5076423;28;20200;-65
2022/01/17 09:44:05;;;;;;;9.47;6.33;;;;;;;8.54;50.62;95212.31;5095013;28;20267;-65
2022/01/17 09:46:37;;;;;;;9.07;5.43;;;;;;;8.59;49.95;95222.09;5094398;28;20203;-65
2022/01/17 09:49:14;;;;;;;11.47;5.90;;;;;;;8.09;51.76;95177.34;5076525;28;20253;-65
2022/01/17 09:54:25;;;;;;;12.03;6.53;;;;;;;8.64;49.19;95236.09;5094269;28;20181;-68
2022/01/17 09:56:52;;;;;;;11.03;6.93;;;;;;;8.51;51.43;95193.94;5075629;28;20180;-61
2022/01/17 09:59:18;;;;;;;13.53;6.73;;;;;;;7.82;51.73;95159.72;5075977;28;20642;-61
2022/01/17 10:01:44;;;;;;;12.87;6.73;;;;;;;7.81;53.43;95130.28;5094258;28;20180;-60
2022/01/17 10:04:10;;;;;;;13.53;6.43;;;;;;;8.57;52.33;95156.34;5094225;28;20188;-64
2022/01/17 10:06:39;;;;;;;11.47;6.43;;;;;;;9.08;51.99;95182.31;5094423;28;20573;-61
2022/01/17 10:09:17;;;;;;;12.30;7.07;;;;;;;8.99;52.26;95182.94;5076083;28;20192;-63
2022/01/17 10:12:09;;;;;;;8.83;6.00;;;;;;;8.79;53.71;95137.91;5094228;28;20191;-64
2022/01/17 10:14:43;;;;;;;11.17;5.93;;;;;;;8.80;54.38;95116.72;5094302;28;20606;-64
2022/01/17 10:17:11;;;;;;;10.07;5.70;;;;;;;8.29;53.92;95138.88;5094089;28;20589;-66
2022/01/17 10:19:38;;;;;;;10.07;5.17;;;;;;;7.89;55.57;95109.53;5093861;28;20325;-61
2022/01/17 10:22:11;;;;;;;9.27;4.30;;;;;;;7.64;56.98;95082.50;5093933;28;20192;-60
2022/01/17 10:35:37;;;;;;;7.60;4.17;;;;;;;8.15;55.53;95094.19;5074022;28;20677;-62
2022/01/17 10:38:02;;;;;;;5.50;3.87;;;;;;;7.73;56.85;95060.84;5073276;28;20235;-62
2022/01/17 10:40:32;;;;;;;11.03;4.03;;;;;;;7.68;56.97;95066.22;5073709;28;20236;-60
2022/01/17 10:42:59;;;;;;;5.83;3.67;;;;;;;8.16;55.16;95060.34;5073066;28;20658;-64
2022/01/17 10:45:33;;;;;;;8.97;3.73;;;;;;;8.07;56.05;95068.59;5071881;28;20213;-65
2022/01/17 10:48:01;;;;;;;4.47;2.97;;;;;;;7.76;55.88;95065.72;5073252;28;20211;-62
2022/01/17 10:50:50;;;;;;;7.77;3.63;;;;;;;8.25;55.33;95074.16;5055476;28;20212;-64
2022/01/17 10:53:17;;;;;;;5.70;4.00;;;;;;;8.54;55.61;95092.41;5073327;28;20230;-60
2022/01/17 10:55:48;;;;;;;4.77;3.40;;;;;;;7.84;55.24;95089.56;5054923;28;20205;-65
2022/01/17 10:58:20;;;;;;;10.90;3.57;;;;;;;7.35;57.02;95028.00;5073196;28;20201;-66
2022/01/17 11:00:49;;;;;;;6.57;3.43;;;;;;;7.16;58.30;95007.34;5055209;28;20574;-65
2022/01/17 11:03:18;;;;;;;4.73;3.80;;;;;;;6.62;59.99;94987.28;5054813;28;20177;-60
2022/01/17 11:05:46;;;;;;;5.43;4.07;;;;;;;6.27;62.08;94948.31;5073045;28;20197;-61
2022/01/17 11:08:15;;;;;;;9.67;5.07;;;;;;;6.04;62.90;94921.19;5053472;28;20185;-61
2022/01/17 11:10:46;;;;;;;6.23;4.07;;;;;;;5.78;64.15;94917.72;5072884;28;20343;-65
2022/01/17 11:13:14;;;;;;;8.63;4.67;;;;;;;5.50;64.58;94899.34;5054507;28;20176;-65
2022/01/17 11:15:43;;;;;;;6.83;4.10;;;;;;;5.47;65.40;94902.88;5072903;28;20208;-61
2022/01/17 11:18:16;;;;;;;6.80;4.03;;;;;;;5.45;64.49;94922.34;5072311;28;20208;-61
2022/01/17 11:20:42;;;;;;;6.63;4.10;;;;;;;5.32;65.39;94898.75;5054916;28;20302;-65
2022/01/17 11:23:08;;;;;;;13.47;4.87;;;;;;;5.39;65.16;94897.50;5072359;28;20794;-64
2022/01/17 11:25:37;;;;;;;7.50;3.43;;;;;;;5.55;64.54;94915.00;5054424;28;20230;-64
2022/01/17 11:28:05;;;;;;;8.13;4.07;;;;;;;5.89;63.16;94932.25;5072562;28;20179;-60
2022/01/17 11:30:34;;;;;;;6.37;4.23;;;;;;;6.24;61.43;94970.41;5072100;28;20210;-62
2022/01/17 11:33:07;;;;;;;9.30;3.63;;;;;;;5.70;61.00;94982.97;5072161;28;20657;-65
2022/01/17 11:35:37;;;;;;;7.67;3.20;;;;;;;5.29;61.82;94958.63;5089285;22;20239;-63
2022/01/17 11:38:04;;;;;;;5.17;3.20;;;;;;;5.30;61.89;94937.53;5074003;28;20247;-65
2022/01/17 11:40:33;;;;;;;4.63;3.07;;;;;;;5.24;62.36;94928.66;5092663;28;20249;-65
2022/01/17 11:43:00;;;;;;;5.90;3.10;;;;;;;5.49;61.42;94953.19;5073850;28;20261;-65
2022/01/17 11:45:25;;;;;;;6.70;3.40;;;;;;;6.20;59.76;95004.34;5092221;28;20214;-66
2022/01/17 11:47:53;;;;;;;4.87;3.17;;;;;;;6.54;58.50;95047.59;5092525;28;20565;-65
2022/01/17 11:50:32;;;;;;;3.87;2.33;;;;;;;6.46;57.59;95034.63;5092456;28;20207;-62
2022/01/17 11:53:18;;;;;;;8.07;2.97;;;;;;;6.58;57.14;95043.13;5073738;28;20218;-64
2022/01/17 11:55:46;;;;;;;5.47;3.10;;;;;;;6.72;56.79;95038.84;5074268;28;20603;-64
2022/01/17 11:58:19;;;;;;;6.90;2.97;;;;;;;6.90;56.32;95051.19;5073821;28;20210;-61
2022/01/17 12:00:51;;;;;;;3.80;2.80;;;;;;;6.62;56.18;95026.88;5092346;28;20210;-60
2022/01/17 12:03:18;;;;;;;3.80;2.73;;;;;;;6.97;55.67;95049.91;5092093;28;20198;-60
2022/01/17 12:05:44;;;;;;;5.83;2.47;;;;;;;6.73;56.22;95015.19;5092124;28;20214;-65